sensor_id;sensor_type;location;lat;lon;timestamp;P1;durP1;ratioP1;P2;durP2;ratioP2
19907;SDS011;10116;53.112;7.356;2022-10-26T00:01:10;1.77;;;1.67;;
19907;SDS011;10116;53.112;7.356;2022-10-26T00:03:38;2.17;;;2.07;;
19907;SDS011;10116;53.112;7.356;2022-10-26T00:06:06;2.03;;;1.93;;
19907;SDS011;10116;53.112;7.356;2022-10-26T00:08:34;1.97;;;1.70;;
19907;SDS011;10116;53.112;7.356;2022-10-26T00:11:00;2.93;;;2.20;;
19907;SDS011;10116;53.112;7.356;2022-10-26T00:13:25;2.67;;;2.13;;
19907;SDS011;10116;53.112;7.356;2022-10-26T00:15:51;2.37;;;2.17;;
19907;SDS011;10116;53.112;7.356;2022-10-26T00:18:17;1.77;;;1.67;;
19907;SDS011;10116;53.112;7.356;2022-10-26T00:20:42;3.00;;;1.80;;
19907;SDS011;10116;53.112;7.356;2022-10-26T00:23:08;2.13;;;1.70;;
19907;SDS011;10116;53.112;7.356;2022-10-26T00:25:34;2.50;;;2.20;;
19907;SDS011;10116;53.112;7.356;2022-10-26T00:27:59;3.17;;;2.00;;
19907;SDS011;10116;53.112;7.356;2022-10-26T00:30:25;2.40;;;2.20;;
19907;SDS011;10116;53.112;7.356;2022-10-26T00:32:50;2.20;;;2.00;;
19907;SDS011;10116;53.112;7.356;2022-10-26T00:35:16;2.63;;;2.43;;
19907;SDS011;10116;53.112;7.356;2022-10-26T00:37:42;1.93;;;1.60;;
19907;SDS011;10116;53.112;7.356;2022-10-26T00:40:07;1.80;;;1.70;;
19907;SDS011;10116;53.112;7.356;2022-10-26T00:42:33;1.97;;;1.77;;
19907;SDS011;10116;53.112;7.356;2022-10-26T00:45:00;3.00;;;1.77;;
19907;SDS011;10116;53.112;7.356;2022-10-26T00:47:46;2.00;;;1.90;;
19907;SDS011;10116;53.112;7.356;2022-10-26T00:50:23;1.60;;;1.50;;
19907;SDS011;10116;53.112;7.356;2022-10-26T00:52:54;4.40;;;2.30;;
19907;SDS011;10116;53.112;7.356;2022-10-26T00:55:23;2.00;;;1.90;;
19907;SDS011;10116;53.112;7.356;2022-10-26T00:58:02;3.40;;;1.40;;
19907;SDS011;10116;53.112;7.356;2022-10-26T01:00:30;2.07;;;1.90;;
19907;SDS011;10116;53.112;7.356;2022-10-26T01:02:56;1.43;;;1.40;;
19907;SDS011;10116;53.112;7.356;2022-10-26T01:05:25;1.80;;;1.70;;
19907;SDS011;10116;53.112;7.356;2022-10-26T01:07:51;4.87;;;2.27;;
19907;SDS011;10116;53.112;7.356;2022-10-26T01:10:18;2.23;;;1.97;;
19907;SDS011;10116;53.112;7.356;2022-10-26T01:12:45;1.80;;;1.70;;
19907;SDS011;10116;53.112;7.356;2022-10-26T01:15:11;2.53;;;1.93;;
19907;SDS011;10116;53.112;7.356;2022-10-26T01:20:30;3.40;;;1.53;;
19907;SDS011;10116;53.112;7.356;2022-10-26T01:31:45;3.93;;;1.90;;
19907;SDS011;10116;53.112;7.356;2022-10-26T01:36:54;2.80;;;2.00;;
19907;SDS011;10116;53.112;7.356;2022-10-26T01:39:29;2.97;;;2.13;;
19907;SDS011;10116;53.112;7.356;2022-10-26T01:41:59;2.10;;;2.00;;
19907;SDS011;10116;53.112;7.356;2022-10-26T01:44:39;4.37;;;1.70;;
19907;SDS011;10116;53.112;7.356;2022-10-26T01:47:09;2.00;;;1.77;;
19907;SDS011;10116;53.112;7.356;2022-10-26T01:49:44;1.90;;;1.80;;
19907;SDS011;10116;53.112;7.356;2022-10-26T01:52:13;1.73;;;1.63;;
19907;SDS011;10116;53.112;7.356;2022-10-26T01:54:39;2.40;;;2.00;;
19907;SDS011;10116;53.112;7.356;2022-10-26T01:57:06;2.30;;;1.60;;
19907;SDS011;10116;53.112;7.356;2022-10-26T01:59:38;2.27;;;1.70;;
19907;SDS011;10116;53.112;7.356;2022-10-26T02:10:39;1.80;;;1.70;;
19907;SDS011;10116;53.112;7.356;2022-10-26T02:13:31;1.73;;;1.63;;
19907;SDS011;10116;53.112;7.356;2022-10-26T02:22:06;2.20;;;2.00;;
19907;SDS011;10116;53.112;7.356;2022-10-26T02:24:40;1.60;;;1.50;;
19907;SDS011;10116;53.112;7.356;2022-10-26T02:27:07;2.00;;;1.80;;
19907;SDS011;10116;53.112;7.356;2022-10-26T02:29:37;1.70;;;1.60;;
19907;SDS011;10116;53.112;7.356;2022-10-26T02:32:04;1.70;;;1.60;;
19907;SDS011;10116;53.112;7.356;2022-10-26T02:34:32;1.40;;;1.30;;
19907;SDS011;10116;53.112;7.356;2022-10-26T02:37:01;1.80;;;1.70;;
19907;SDS011;10116;53.112;7.356;2022-10-26T02:39:29;2.03;;;1.93;;
19907;SDS011;10116;53.112;7.356;2022-10-26T02:41:58;3.10;;;1.83;;
19907;SDS011;10116;53.112;7.356;2022-10-26T02:44:28;2.50;;;1.60;;
19907;SDS011;10116;53.112;7.356;2022-10-26T02:46:56;1.80;;;1.70;;
19907;SDS011;10116;53.112;7.356;2022-10-26T02:49:23;2.80;;;1.90;;
19907;SDS011;10116;53.112;7.356;2022-10-26T02:52:03;3.17;;;2.17;;
19907;SDS011;10116;53.112;7.356;2022-10-26T02:57:39;2.47;;;1.73;;
19907;SDS011;10116;53.112;7.356;2022-10-26T03:00:11;2.23;;;1.70;;
19907;SDS011;10116;53.112;7.356;2022-10-26T03:02:43;2.37;;;1.70;;
19907;SDS011;10116;53.112;7.356;2022-10-26T03:07:40;1.67;;;1.57;;
19907;SDS011;10116;53.112;7.356;2022-10-26T03:10:06;2.80;;;1.87;;
19907;SDS011;10116;53.112;7.356;2022-10-26T03:12:32;3.73;;;1.77;;
19907;SDS011;10116;53.112;7.356;2022-10-26T03:14:58;2.07;;;1.80;;
19907;SDS011;10116;53.112;7.356;2022-10-26T03:17:23;1.53;;;1.43;;
19907;SDS011;10116;53.112;7.356;2022-10-26T03:19:49;2.50;;;1.60;;
19907;SDS011;10116;53.112;7.356;2022-10-26T03:22:14;2.30;;;1.80;;
19907;SDS011;10116;53.112;7.356;2022-10-26T03:24:40;1.97;;;1.80;;
19907;SDS011;10116;53.112;7.356;2022-10-26T03:27:05;2.10;;;2.00;;
19907;SDS011;10116;53.112;7.356;2022-10-26T03:29:31;2.10;;;1.90;;
19907;SDS011;10116;53.112;7.356;2022-10-26T03:31:57;2.30;;;1.93;;
19907;SDS011;10116;53.112;7.356;2022-10-26T03:34:22;1.73;;;1.63;;
19907;SDS011;10116;53.112;7.356;2022-10-26T03:36:48;1.47;;;1.37;;
19907;SDS011;10116;53.112;7.356;2022-10-26T03:39:13;4.17;;;1.97;;
19907;SDS011;10116;53.112;7.356;2022-10-26T03:41:39;3.80;;;2.00;;
19907;SDS011;10116;53.112;7.356;2022-10-26T03:44:05;1.87;;;1.77;;
19907;SDS011;10116;53.112;7.356;2022-10-26T03:46:31;3.70;;;2.17;;
19907;SDS011;10116;53.112;7.356;2022-10-26T03:48:56;2.20;;;2.10;;
19907;SDS011;10116;53.112;7.356;2022-10-26T03:51:22;1.87;;;1.77;;
19907;SDS011;10116;53.112;7.356;2022-10-26T03:53:47;2.10;;;1.90;;
19907;SDS011;10116;53.112;7.356;2022-10-26T03:56:13;2.83;;;1.70;;
19907;SDS011;10116;53.112;7.356;2022-10-26T03:58:38;2.23;;;1.80;;
19907;SDS011;10116;53.112;7.356;2022-10-26T04:01:04;2.53;;;2.10;;
19907;SDS011;10116;53.112;7.356;2022-10-26T04:03:30;2.03;;;1.80;;
19907;SDS011;10116;53.112;7.356;2022-10-26T04:05:58;1.97;;;1.87;;
19907;SDS011;10116;53.112;7.356;2022-10-26T04:08:24;2.03;;;1.83;;
19907;SDS011;10116;53.112;7.356;2022-10-26T04:10:50;2.07;;;1.97;;
19907;SDS011;10116;53.112;7.356;2022-10-26T04:13:16;2.73;;;2.23;;
19907;SDS011;10116;53.112;7.356;2022-10-26T04:15:41;2.80;;;2.30;;
19907;SDS011;10116;53.112;7.356;2022-10-26T04:18:07;2.20;;;1.70;;
19907;SDS011;10116;53.112;7.356;2022-10-26T04:20:36;1.80;;;1.70;;
19907;SDS011;10116;53.112;7.356;2022-10-26T04:23:04;1.60;;;1.50;;
19907;SDS011;10116;53.112;7.356;2022-10-26T04:25:30;1.93;;;1.80;;
19907;SDS011;10116;53.112;7.356;2022-10-26T04:27:57;1.90;;;1.80;;
19907;SDS011;10116;53.112;7.356;2022-10-26T04:30:23;1.97;;;1.77;;
19907;SDS011;10116;53.112;7.356;2022-10-26T04:32:49;1.80;;;1.70;;
19907;SDS011;10116;53.112;7.356;2022-10-26T04:35:15;1.90;;;1.80;;
19907;SDS011;10116;53.112;7.356;2022-10-26T04:37:41;1.70;;;1.60;;
19907;SDS011;10116;53.112;7.356;2022-10-26T04:40:07;1.90;;;1.80;;
19907;SDS011;10116;53.112;7.356;2022-10-26T04:42:40;1.73;;;1.63;;
19907;SDS011;10116;53.112;7.356;2022-10-26T04:45:09;1.37;;;1.37;;
19907;SDS011;10116;53.112;7.356;2022-10-26T04:47:37;1.70;;;1.60;;
19907;SDS011;10116;53.112;7.356;2022-10-26T04:50:03;1.60;;;1.50;;
19907;SDS011;10116;53.112;7.356;2022-10-26T04:52:29;1.80;;;1.70;;
19907;SDS011;10116;53.112;7.356;2022-10-26T04:54:55;1.70;;;1.60;;
19907;SDS011;10116;53.112;7.356;2022-10-26T04:57:20;1.90;;;1.57;;
19907;SDS011;10116;53.112;7.356;2022-10-26T04:59:46;1.70;;;1.60;;
19907;SDS011;10116;53.112;7.356;2022-10-26T05:02:12;2.07;;;1.70;;
19907;SDS011;10116;53.112;7.356;2022-10-26T05:04:37;2.03;;;1.93;;
19907;SDS011;10116;53.112;7.356;2022-10-26T05:07:03;2.70;;;2.10;;
19907;SDS011;10116;53.112;7.356;2022-10-26T05:09:28;2.03;;;1.90;;
19907;SDS011;10116;53.112;7.356;2022-10-26T05:11:54;3.50;;;2.17;;
19907;SDS011;10116;53.112;7.356;2022-10-26T05:14:20;2.37;;;1.77;;
19907;SDS011;10116;53.112;7.356;2022-10-26T05:16:45;1.73;;;1.63;;
19907;SDS011;10116;53.112;7.356;2022-10-26T05:19:11;1.77;;;1.67;;
19907;SDS011;10116;53.112;7.356;2022-10-26T05:21:36;1.20;;;1.10;;
19907;SDS011;10116;53.112;7.356;2022-10-26T05:24:02;1.53;;;1.43;;
19907;SDS011;10116;53.112;7.356;2022-10-26T05:26:28;1.30;;;1.20;;
19907;SDS011;10116;53.112;7.356;2022-10-26T05:28:54;3.30;;;2.00;;
19907;SDS011;10116;53.112;7.356;2022-10-26T05:31:19;1.60;;;1.50;;
19907;SDS011;10116;53.112;7.356;2022-10-26T05:33:49;3.30;;;2.30;;
19907;SDS011;10116;53.112;7.356;2022-10-26T05:36:18;2.33;;;2.00;;
19907;SDS011;10116;53.112;7.356;2022-10-26T05:38:44;1.90;;;1.80;;
19907;SDS011;10116;53.112;7.356;2022-10-26T05:41:10;2.20;;;1.80;;
19907;SDS011;10116;53.112;7.356;2022-10-26T05:43:37;1.80;;;1.70;;
19907;SDS011;10116;53.112;7.356;2022-10-26T05:46:02;2.20;;;2.10;;
19907;SDS011;10116;53.112;7.356;2022-10-26T05:48:28;2.57;;;2.10;;
19907;SDS011;10116;53.112;7.356;2022-10-26T05:50:57;6.30;;;2.00;;
19907;SDS011;10116;53.112;7.356;2022-10-26T05:53:24;2.30;;;2.10;;
19907;SDS011;10116;53.112;7.356;2022-10-26T05:55:50;2.77;;;1.80;;
19907;SDS011;10116;53.112;7.356;2022-10-26T05:58:15;2.20;;;2.10;;
19907;SDS011;10116;53.112;7.356;2022-10-26T06:06:16;2.10;;;2.00;;
19907;SDS011;10116;53.112;7.356;2022-10-26T06:08:42;2.93;;;1.97;;
19907;SDS011;10116;53.112;7.356;2022-10-26T06:11:08;2.47;;;2.27;;
19907;SDS011;10116;53.112;7.356;2022-10-26T06:13:34;2.70;;;2.20;;
19907;SDS011;10116;53.112;7.356;2022-10-26T06:26:35;15.80;;;3.47;;
19907;SDS011;10116;53.112;7.356;2022-10-26T06:29:18;11.57;;;2.53;;
19907;SDS011;10116;53.112;7.356;2022-10-26T06:31:55;24.00;;;2.67;;
19907;SDS011;10116;53.112;7.356;2022-10-26T06:34:22;24.63;;;2.77;;
19907;SDS011;10116;53.112;7.356;2022-10-26T06:36:52;16.47;;;2.80;;
19907;SDS011;10116;53.112;7.356;2022-10-26T06:39:18;5.47;;;1.80;;
19907;SDS011;10116;53.112;7.356;2022-10-26T06:41:45;10.40;;;2.43;;
19907;SDS011;10116;53.112;7.356;2022-10-26T06:44:14;7.13;;;2.03;;
19907;SDS011;10116;53.112;7.356;2022-10-26T06:57:19;7.03;;;2.50;;
19907;SDS011;10116;53.112;7.356;2022-10-26T07:02:14;7.47;;;1.87;;
19907;SDS011;10116;53.112;7.356;2022-10-26T07:04:41;4.47;;;2.13;;
19907;SDS011;10116;53.112;7.356;2022-10-26T07:07:08;5.10;;;2.07;;
19907;SDS011;10116;53.112;7.356;2022-10-26T07:09:42;9.53;;;1.50;;
19907;SDS011;10116;53.112;7.356;2022-10-26T07:12:07;1.77;;;1.67;;
19907;SDS011;10116;53.112;7.356;2022-10-26T07:14:33;4.83;;;1.70;;
19907;SDS011;10116;53.112;7.356;2022-10-26T07:16:59;5.43;;;2.20;;
19907;SDS011;10116;53.112;7.356;2022-10-26T07:19:24;2.90;;;1.70;;
19907;SDS011;10116;53.112;7.356;2022-10-26T07:21:52;6.70;;;1.90;;
19907;SDS011;10116;53.112;7.356;2022-10-26T07:24:20;4.30;;;2.00;;
19907;SDS011;10116;53.112;7.356;2022-10-26T07:26:46;6.00;;;1.83;;
19907;SDS011;10116;53.112;7.356;2022-10-26T07:29:11;1.50;;;1.40;;
19907;SDS011;10116;53.112;7.356;2022-10-26T07:31:38;1.80;;;1.70;;
19907;SDS011;10116;53.112;7.356;2022-10-26T07:34:03;1.90;;;1.77;;
19907;SDS011;10116;53.112;7.356;2022-10-26T07:36:29;2.20;;;1.50;;
19907;SDS011;10116;53.112;7.356;2022-10-26T07:38:54;4.43;;;1.80;;
19907;SDS011;10116;53.112;7.356;2022-10-26T07:41:20;3.20;;;2.10;;
19907;SDS011;10116;53.112;7.356;2022-10-26T07:43:46;2.60;;;2.07;;
19907;SDS011;10116;53.112;7.356;2022-10-26T07:46:14;5.50;;;2.73;;
19907;SDS011;10116;53.112;7.356;2022-10-26T07:48:40;8.40;;;2.97;;
19907;SDS011;10116;53.112;7.356;2022-10-26T07:51:06;2.50;;;2.10;;
19907;SDS011;10116;53.112;7.356;2022-10-26T07:53:32;10.03;;;2.53;;
19907;SDS011;10116;53.112;7.356;2022-10-26T07:55:58;4.23;;;2.27;;
19907;SDS011;10116;53.112;7.356;2022-10-26T07:58:23;7.67;;;2.53;;
19907;SDS011;10116;53.112;7.356;2022-10-26T08:00:51;4.40;;;2.17;;
19907;SDS011;10116;53.112;7.356;2022-10-26T08:03:18;8.90;;;2.50;;
19907;SDS011;10116;53.112;7.356;2022-10-26T08:05:45;4.97;;;1.90;;
19907;SDS011;10116;53.112;7.356;2022-10-26T08:08:18;6.00;;;2.30;;
19907;SDS011;10116;53.112;7.356;2022-10-26T08:10:44;3.07;;;1.93;;
19907;SDS011;10116;53.112;7.356;2022-10-26T08:13:10;1.90;;;1.80;;
19907;SDS011;10116;53.112;7.356;2022-10-26T08:15:36;3.00;;;2.03;;
19907;SDS011;10116;53.112;7.356;2022-10-26T08:18:02;2.97;;;1.50;;
19907;SDS011;10116;53.112;7.356;2022-10-26T08:20:28;2.50;;;1.80;;
19907;SDS011;10116;53.112;7.356;2022-10-26T08:22:57;2.40;;;1.60;;
19907;SDS011;10116;53.112;7.356;2022-10-26T08:25:23;2.83;;;2.27;;
19907;SDS011;10116;53.112;7.356;2022-10-26T08:27:48;2.10;;;2.00;;
19907;SDS011;10116;53.112;7.356;2022-10-26T08:30:14;2.87;;;1.80;;
19907;SDS011;10116;53.112;7.356;2022-10-26T08:32:40;2.40;;;2.10;;
19907;SDS011;10116;53.112;7.356;2022-10-26T08:35:06;2.97;;;1.80;;
19907;SDS011;10116;53.112;7.356;2022-10-26T08:37:33;1.63;;;1.53;;
19907;SDS011;10116;53.112;7.356;2022-10-26T08:39:58;2.23;;;2.03;;
19907;SDS011;10116;53.112;7.356;2022-10-26T08:44:59;2.50;;;2.10;;
19907;SDS011;10116;53.112;7.356;2022-10-26T08:47:29;2.10;;;1.53;;
19907;SDS011;10116;53.112;7.356;2022-10-26T08:50:12;1.93;;;1.53;;
19907;SDS011;10116;53.112;7.356;2022-10-26T08:55:30;8.63;;;1.60;;
19907;SDS011;10116;53.112;7.356;2022-10-26T08:58:02;1.90;;;1.60;;
19907;SDS011;10116;53.112;7.356;2022-10-26T09:00:31;1.63;;;1.53;;
19907;SDS011;10116;53.112;7.356;2022-10-26T09:02:58;1.60;;;1.50;;
19907;SDS011;10116;53.112;7.356;2022-10-26T09:05:31;2.37;;;1.50;;
19907;SDS011;10116;53.112;7.356;2022-10-26T09:08:16;1.40;;;1.40;;
19907;SDS011;10116;53.112;7.356;2022-10-26T09:13:38;1.50;;;1.40;;
19907;SDS011;10116;53.112;7.356;2022-10-26T09:24:30;3.27;;;1.97;;
19907;SDS011;10116;53.112;7.356;2022-10-26T09:27:00;2.30;;;1.70;;
19907;SDS011;10116;53.112;7.356;2022-10-26T09:29:27;4.13;;;2.20;;
19907;SDS011;10116;53.112;7.356;2022-10-26T09:31:55;7.80;;;2.60;;
19907;SDS011;10116;53.112;7.356;2022-10-26T09:34:27;8.70;;;2.40;;
19907;SDS011;10116;53.112;7.356;2022-10-26T09:37:01;9.33;;;2.10;;
19907;SDS011;10116;53.112;7.356;2022-10-26T09:39:40;8.10;;;2.00;;
19907;SDS011;10116;53.112;7.356;2022-10-26T09:45:00;10.63;;;2.60;;
19907;SDS011;10116;53.112;7.356;2022-10-26T09:47:49;9.47;;;2.77;;
19907;SDS011;10116;53.112;7.356;2022-10-26T09:52:46;8.60;;;2.57;;
19907;SDS011;10116;53.112;7.356;2022-10-26T09:55:12;11.47;;;2.60;;
19907;SDS011;10116;53.112;7.356;2022-10-26T09:57:41;4.20;;;1.90;;
19907;SDS011;10116;53.112;7.356;2022-10-26T10:00:16;5.90;;;2.07;;
19907;SDS011;10116;53.112;7.356;2022-10-26T10:02:49;10.00;;;2.73;;
19907;SDS011;10116;53.112;7.356;2022-10-26T10:07:48;4.57;;;1.60;;
19907;SDS011;10116;53.112;7.356;2022-10-26T10:10:15;3.67;;;1.77;;
19907;SDS011;10116;53.112;7.356;2022-10-26T10:12:43;4.63;;;1.90;;
19907;SDS011;10116;53.112;7.356;2022-10-26T10:15:16;6.33;;;1.57;;
19907;SDS011;10116;53.112;7.356;2022-10-26T10:17:51;2.80;;;1.70;;
19907;SDS011;10116;53.112;7.356;2022-10-26T10:20:32;3.90;;;1.63;;
19907;SDS011;10116;53.112;7.356;2022-10-26T10:23:01;3.27;;;1.57;;
19907;SDS011;10116;53.112;7.356;2022-10-26T10:27:54;2.63;;;1.37;;
19907;SDS011;10116;53.112;7.356;2022-10-26T10:30:27;4.50;;;1.90;;
19907;SDS011;10116;53.112;7.356;2022-10-26T10:33:07;8.20;;;1.63;;
19907;SDS011;10116;53.112;7.356;2022-10-26T10:35:38;7.13;;;1.90;;
19907;SDS011;10116;53.112;7.356;2022-10-26T10:38:18;1.53;;;1.30;;
19907;SDS011;10116;53.112;7.356;2022-10-26T10:40:52;2.83;;;1.87;;
19907;SDS011;10116;53.112;7.356;2022-10-26T10:43:20;2.87;;;1.50;;
19907;SDS011;10116;53.112;7.356;2022-10-26T10:45:46;1.53;;;1.30;;
19907;SDS011;10116;53.112;7.356;2022-10-26T10:50:58;4.00;;;1.70;;
19907;SDS011;10116;53.112;7.356;2022-10-26T10:53:46;3.17;;;1.50;;
19907;SDS011;10116;53.112;7.356;2022-10-26T11:01:49;3.60;;;1.67;;
19907;SDS011;10116;53.112;7.356;2022-10-26T11:04:31;4.87;;;1.80;;
19907;SDS011;10116;53.112;7.356;2022-10-26T11:07:04;2.00;;;1.50;;
19907;SDS011;10116;53.112;7.356;2022-10-26T11:09:32;2.00;;;1.50;;
19907;SDS011;10116;53.112;7.356;2022-10-26T11:12:01;1.83;;;1.73;;
19907;SDS011;10116;53.112;7.356;2022-10-26T11:14:36;1.50;;;1.40;;
19907;SDS011;10116;53.112;7.356;2022-10-26T11:17:07;2.13;;;1.37;;
19907;SDS011;10116;53.112;7.356;2022-10-26T11:22:23;5.20;;;1.03;;
19907;SDS011;10116;53.112;7.356;2022-10-26T11:25:03;2.50;;;1.10;;
19907;SDS011;10116;53.112;7.356;2022-10-26T11:27:41;1.40;;;1.30;;
19907;SDS011;10116;53.112;7.356;2022-10-26T11:30:17;2.70;;;1.53;;
19907;SDS011;10116;53.112;7.356;2022-10-26T11:32:55;1.60;;;1.50;;
19907;SDS011;10116;53.112;7.356;2022-10-26T11:35:43;2.20;;;1.40;;
19907;SDS011;10116;53.112;7.356;2022-10-26T11:44:14;1.30;;;1.27;;
19907;SDS011;10116;53.112;7.356;2022-10-26T11:47:05;1.60;;;1.40;;
19907;SDS011;10116;53.112;7.356;2022-10-26T11:52:24;2.40;;;1.40;;
19907;SDS011;10116;53.112;7.356;2022-10-26T11:54:58;3.70;;;1.50;;
19907;SDS011;10116;53.112;7.356;2022-10-26T11:57:26;2.33;;;1.20;;
19907;SDS011;10116;53.112;7.356;2022-10-26T11:59:54;2.93;;;1.53;;
19907;SDS011;10116;53.112;7.356;2022-10-26T12:02:26;3.83;;;1.57;;
19907;SDS011;10116;53.112;7.356;2022-10-26T12:05:01;1.33;;;1.23;;
19907;SDS011;10116;53.112;7.356;2022-10-26T12:07:30;2.93;;;1.33;;
19907;SDS011;10116;53.112;7.356;2022-10-26T12:09:59;2.10;;;1.37;;
19907;SDS011;10116;53.112;7.356;2022-10-26T12:23:27;2.40;;;1.53;;
19907;SDS011;10116;53.112;7.356;2022-10-26T12:28:48;1.47;;;1.37;;
19907;SDS011;10116;53.112;7.356;2022-10-26T12:34:03;2.20;;;1.47;;
19907;SDS011;10116;53.112;7.356;2022-10-26T12:36:47;1.10;;;1.10;;
19907;SDS011;10116;53.112;7.356;2022-10-26T12:41:57;2.03;;;1.13;;
19907;SDS011;10116;53.112;7.356;2022-10-26T13:00:17;1.37;;;0.93;;
19907;SDS011;10116;53.112;7.356;2022-10-26T13:05:41;2.03;;;1.20;;
19907;SDS011;10116;53.112;7.356;2022-10-26T13:08:22;1.53;;;1.07;;
19907;SDS011;10116;53.112;7.356;2022-10-26T13:11:04;1.87;;;1.30;;
19907;SDS011;10116;53.112;7.356;2022-10-26T13:13:36;1.23;;;1.13;;
19907;SDS011;10116;53.112;7.356;2022-10-26T13:16:05;2.40;;;1.20;;
19907;SDS011;10116;53.112;7.356;2022-10-26T13:18:45;1.73;;;1.13;;
19907;SDS011;10116;53.112;7.356;2022-10-26T13:21:16;2.70;;;1.40;;
19907;SDS011;10116;53.112;7.356;2022-10-26T13:23:47;1.43;;;1.27;;
19907;SDS011;10116;53.112;7.356;2022-10-26T13:26:23;1.90;;;1.40;;
19907;SDS011;10116;53.112;7.356;2022-10-26T13:36:30;1.47;;;1.30;;
19907;SDS011;10116;53.112;7.356;2022-10-26T13:39:01;1.10;;;1.07;;
19907;SDS011;10116;53.112;7.356;2022-10-26T13:41:35;1.03;;;1.03;;
19907;SDS011;10116;53.112;7.356;2022-10-26T13:44:09;1.37;;;1.23;;
19907;SDS011;10116;53.112;7.356;2022-10-26T13:46:44;2.93;;;1.20;;
19907;SDS011;10116;53.112;7.356;2022-10-26T13:49:27;2.63;;;1.60;;
19907;SDS011;10116;53.112;7.356;2022-10-26T13:52:00;1.30;;;1.20;;
19907;SDS011;10116;53.112;7.356;2022-10-26T13:54:45;1.60;;;1.50;;
19907;SDS011;10116;53.112;7.356;2022-10-26T13:57:36;3.93;;;1.10;;
19907;SDS011;10116;53.112;7.356;2022-10-26T14:00:15;2.50;;;1.20;;
19907;SDS011;10116;53.112;7.356;2022-10-26T14:02:44;3.27;;;1.13;;
19907;SDS011;10116;53.112;7.356;2022-10-26T14:05:11;5.17;;;1.40;;
19907;SDS011;10116;53.112;7.356;2022-10-26T14:07:48;2.03;;;1.07;;
19907;SDS011;10116;53.112;7.356;2022-10-26T14:10:27;1.37;;;1.27;;
19907;SDS011;10116;53.112;7.356;2022-10-26T14:12:53;2.20;;;1.60;;
19907;SDS011;10116;53.112;7.356;2022-10-26T14:15:22;1.40;;;1.30;;
19907;SDS011;10116;53.112;7.356;2022-10-26T14:17:54;3.23;;;1.77;;
19907;SDS011;10116;53.112;7.356;2022-10-26T14:20:22;1.43;;;1.00;;
19907;SDS011;10116;53.112;7.356;2022-10-26T14:22:50;3.07;;;1.40;;
19907;SDS011;10116;53.112;7.356;2022-10-26T14:25:17;2.00;;;1.10;;
19907;SDS011;10116;53.112;7.356;2022-10-26T14:27:49;1.00;;;1.00;;
19907;SDS011;10116;53.112;7.356;2022-10-26T14:32:54;2.90;;;1.07;;
19907;SDS011;10116;53.112;7.356;2022-10-26T14:35:21;4.27;;;1.40;;
19907;SDS011;10116;53.112;7.356;2022-10-26T14:38:06;4.47;;;1.37;;
19907;SDS011;10116;53.112;7.356;2022-10-26T14:40:45;2.73;;;1.47;;
19907;SDS011;10116;53.112;7.356;2022-10-26T14:43:15;2.10;;;1.63;;
19907;SDS011;10116;53.112;7.356;2022-10-26T14:45:48;1.57;;;1.47;;
19907;SDS011;10116;53.112;7.356;2022-10-26T14:48:19;1.60;;;1.20;;
19907;SDS011;10116;53.112;7.356;2022-10-26T14:53:36;3.17;;;1.83;;
19907;SDS011;10116;53.112;7.356;2022-10-26T14:56:04;5.30;;;1.43;;
19907;SDS011;10116;53.112;7.356;2022-10-26T14:58:41;1.93;;;1.13;;
19907;SDS011;10116;53.112;7.356;2022-10-26T15:04:02;2.40;;;1.50;;
19907;SDS011;10116;53.112;7.356;2022-10-26T15:06:40;1.03;;;1.00;;
19907;SDS011;10116;53.112;7.356;2022-10-26T15:09:27;1.40;;;1.30;;
19907;SDS011;10116;53.112;7.356;2022-10-26T15:11:57;2.57;;;1.30;;
19907;SDS011;10116;53.112;7.356;2022-10-26T15:14:23;1.47;;;1.37;;
19907;SDS011;10116;53.112;7.356;2022-10-26T15:16:50;1.53;;;1.43;;
19907;SDS011;10116;53.112;7.356;2022-10-26T15:19:20;1.33;;;1.23;;
19907;SDS011;10116;53.112;7.356;2022-10-26T15:21:48;2.13;;;1.83;;
19907;SDS011;10116;53.112;7.356;2022-10-26T15:26:54;1.20;;;1.10;;
19907;SDS011;10116;53.112;7.356;2022-10-26T15:32:20;1.40;;;1.30;;
19907;SDS011;10116;53.112;7.356;2022-10-26T15:37:46;1.73;;;1.10;;
19907;SDS011;10116;53.112;7.356;2022-10-26T15:40:13;1.70;;;1.50;;
19907;SDS011;10116;53.112;7.356;2022-10-26T15:42:39;1.20;;;1.10;;
19907;SDS011;10116;53.112;7.356;2022-10-26T15:45:48;2.73;;;1.20;;
19907;SDS011;10116;53.112;7.356;2022-10-26T15:47:58;2.13;;;1.30;;
19907;SDS011;10116;53.112;7.356;2022-10-26T15:50:35;1.43;;;1.20;;
19907;SDS011;10116;53.112;7.356;2022-10-26T15:53:01;1.30;;;1.20;;
19907;SDS011;10116;53.112;7.356;2022-10-26T15:55:33;1.33;;;1.10;;
19907;SDS011;10116;53.112;7.356;2022-10-26T15:58:01;1.47;;;1.37;;
19907;SDS011;10116;53.112;7.356;2022-10-26T16:00:26;1.30;;;1.20;;
19907;SDS011;10116;53.112;7.356;2022-10-26T16:02:52;1.10;;;1.00;;
19907;SDS011;10116;53.112;7.356;2022-10-26T16:05:18;1.20;;;1.10;;
19907;SDS011;10116;53.112;7.356;2022-10-26T16:07:44;1.87;;;1.40;;
19907;SDS011;10116;53.112;7.356;2022-10-26T16:10:11;3.17;;;1.30;;
19907;SDS011;10116;53.112;7.356;2022-10-26T16:12:42;1.73;;;1.30;;
19907;SDS011;10116;53.112;7.356;2022-10-26T16:15:08;1.73;;;1.40;;
19907;SDS011;10116;53.112;7.356;2022-10-26T16:17:41;6.10;;;1.63;;
19907;SDS011;10116;53.112;7.356;2022-10-26T16:20:07;1.60;;;1.50;;
19907;SDS011;10116;53.112;7.356;2022-10-26T16:22:39;1.80;;;1.47;;
19907;SDS011;10116;53.112;7.356;2022-10-26T16:25:06;2.93;;;1.47;;
19907;SDS011;10116;53.112;7.356;2022-10-26T16:27:31;2.43;;;1.53;;
19907;SDS011;10116;53.112;7.356;2022-10-26T16:29:57;1.27;;;1.27;;
19907;SDS011;10116;53.112;7.356;2022-10-26T16:32:23;2.97;;;1.50;;
19907;SDS011;10116;53.112;7.356;2022-10-26T16:34:48;1.67;;;1.57;;
19907;SDS011;10116;53.112;7.356;2022-10-26T16:37:14;1.67;;;1.50;;
19907;SDS011;10116;53.112;7.356;2022-10-26T16:39:39;1.83;;;1.73;;
19907;SDS011;10116;53.112;7.356;2022-10-26T16:42:05;3.17;;;1.80;;
19907;SDS011;10116;53.112;7.356;2022-10-26T16:44:30;2.10;;;1.63;;
19907;SDS011;10116;53.112;7.356;2022-10-26T16:46:56;1.70;;;1.60;;
19907;SDS011;10116;53.112;7.356;2022-10-26T16:49:21;1.73;;;1.63;;
19907;SDS011;10116;53.112;7.356;2022-10-26T16:51:47;2.20;;;1.60;;
19907;SDS011;10116;53.112;7.356;2022-10-26T16:54:13;1.60;;;1.50;;
19907;SDS011;10116;53.112;7.356;2022-10-26T16:56:38;4.53;;;1.40;;
19907;SDS011;10116;53.112;7.356;2022-10-26T16:59:07;6.23;;;1.93;;
19907;SDS011;10116;53.112;7.356;2022-10-26T17:01:33;4.20;;;1.90;;
19907;SDS011;10116;53.112;7.356;2022-10-26T17:03:59;2.50;;;1.63;;
19907;SDS011;10116;53.112;7.356;2022-10-26T17:06:27;2.43;;;1.83;;
19907;SDS011;10116;53.112;7.356;2022-10-26T17:08:53;1.97;;;1.60;;
19907;SDS011;10116;53.112;7.356;2022-10-26T17:11:19;2.33;;;2.13;;
19907;SDS011;10116;53.112;7.356;2022-10-26T17:13:51;2.30;;;1.77;;
19907;SDS011;10116;53.112;7.356;2022-10-26T17:16:24;2.50;;;1.77;;
19907;SDS011;10116;53.112;7.356;2022-10-26T17:18:50;3.03;;;2.23;;
19907;SDS011;10116;53.112;7.356;2022-10-26T17:21:17;1.73;;;1.63;;
19907;SDS011;10116;53.112;7.356;2022-10-26T17:23:52;1.97;;;1.73;;
19907;SDS011;10116;53.112;7.356;2022-10-26T17:26:17;1.60;;;1.37;;
19907;SDS011;10116;53.112;7.356;2022-10-26T17:28:43;1.80;;;1.70;;
19907;SDS011;10116;53.112;7.356;2022-10-26T17:31:13;1.50;;;1.40;;
19907;SDS011;10116;53.112;7.356;2022-10-26T17:33:40;3.63;;;1.93;;
19907;SDS011;10116;53.112;7.356;2022-10-26T17:36:07;2.23;;;1.70;;
19907;SDS011;10116;53.112;7.356;2022-10-26T17:38:35;2.70;;;1.90;;
19907;SDS011;10116;53.112;7.356;2022-10-26T17:41:03;2.67;;;2.03;;
19907;SDS011;10116;53.112;7.356;2022-10-26T17:43:31;6.23;;;2.20;;
19907;SDS011;10116;53.112;7.356;2022-10-26T17:46:17;4.13;;;1.87;;
19907;SDS011;10116;53.112;7.356;2022-10-26T17:48:44;2.40;;;1.90;;
19907;SDS011;10116;53.112;7.356;2022-10-26T17:51:14;1.47;;;1.37;;
19907;SDS011;10116;53.112;7.356;2022-10-26T17:53:41;1.83;;;1.73;;